Search for airport 
image banner adimage banner adimage banner ad
image banner ad

2CL6 - St John's Rgnl Medical Center

Located in Oxnard, United States

ICAO - 2CL6, IATA -

Data provided by Airmate  

General information

Coordinates: N34°12'60" W119°9'26"
Elevation is 76 feet MSL.
Magnetic variation is 14° East
View others Airports in California

Operational data

Special qualification required
Current time UTC:
Current local time:
Weather at : KOXR - Oxnard ( 5 km )
METAR: KOXR 270551Z 19003KT 10SM OVC010 19/16 A2998 RMK AO2 SLP152 T01890161 10211 20183 51018
TAF: KOXR 270537Z 2706/2806 VRB03KT P6SM OVC010 FM271300 VRB03KT P6SM OVC012 FM271800 27010KT P6SM SKC FM280300 VRB03KT P6SM SKC
View NOTAMs / SUP AIP / TFR affecting this airport [VIEW]
Communications frequencies: [VIEW]

Runways:

Airport contact information

Address: Oxnard United States

Satellite view of 2CL6